Flight Track Log - Related Links

Times and Time Zones

All times are in EDT time to prevent confusion due to time zone crossing. See the ASQ4231 flight status page for this flight to view local times or setup timezone preferences in your user account.

Time Position Orientation Groundspeed Altitude Reporting Facility
EDT Latitude Longitude Course Direction KTS MPH feet Rate Location/Type
Thu 11:41:19 PM 29.9617 -95.3436 90° East 147 169 900  Level Houston Center
Thu 11:41:31 PM 29.9547 -95.3347 132° Southeast 163 188 1,500 1,781 Climbing Houston Center
Thu 11:42:23 PM 29.9275 -95.2972 130° Southeast 178 205 2,800 1,929 Climbing Houston Center
Thu 11:43:23 PM 29.8839 -95.2342 129° Southeast 245 282 5,100 2,281 Climbing Houston Center
Thu 11:44:24 PM 29.8383 -95.1700 129° Southeast 255 293 7,400 2,115 Climbing Houston Center
Thu 11:45:00 PM 30.0627 -94.8031 90° East  Level Estimated
Thu 11:45:25 PM 29.8489 -95.0806 82° East 278 320 9,400  Level Houston Center
Thu 11:46:00 PM 30.0781 -94.6953 90° East  Level Estimated
Thu 11:46:25 PM 29.8661 -94.9889 78° East 290 334 10,900  Level Houston Center
Thu 11:47:26 PM 29.8867 -94.8822 77° East 333 383 11,600 893 Climbing Houston Center
Thu 11:48:26 PM 29.9086 -94.7686 77° East 360 414 12,700 1,140 Climbing Houston Center
Thu 11:49:27 PM 29.9308 -94.6506 78° East 367 422 13,900 1,082 Climbing Houston Center
Thu 11:50:28 PM 29.9533 -94.5364 77° East 372 428 14,900 942 Climbing Houston Center
Thu 11:51:28 PM 29.9719 -94.4361 78° East 375 432 15,800 1,091 Climbing Houston Center
Thu 11:52:29 PM 29.9975 -94.2936 78° East 379 436 17,100 1,140 Climbing Houston Center
Thu 11:53:29 PM 30.0131 -94.1719 82° East 382 440 18,100 942 Climbing Houston Center
Thu 11:54:30 PM 30.0269 -94.0492 83° East 387 445 19,000 942 Climbing Houston Center
Thu 11:55:30 PM 30.0428 -93.9267 81° East 388 447 20,000 992 Climbing Houston Center
Thu 11:56:31 PM 30.0578 -93.8014 82° East 394 453 21,000 992 Climbing Houston Center
Thu 11:57:31 PM 30.0725 -93.6761 82° East 396 456 22,000 942 Climbing Houston Center
Thu 11:58:32 PM 30.0878 -93.5489 82° East 406 467 22,900 496 Climbing Houston Center
Thu 11:59:32 PM 30.1019 -93.4203 83° East 407 468 23,000 50 Climbing Houston Center
Fri 12:00:33 AM 30.1186 -93.2858 82° East 423 487 23,000  Level Houston Center
Fri 12:01:33 AM 30.1353 -93.1453 82° East 442 509 23,000  Level Houston Center
Fri 12:02:34 AM 30.1586 -93.0064 79° East 444 511 23,000  Level Houston Center
Fri 12:03:34 AM 30.1864 -92.8661 77° East 449 517 23,000  Level Houston Center
Fri 12:04:34 AM 30.2147 -92.7247 77° East 454 522 23,000  Level Houston Center
Fri 12:05:35 AM 30.2425 -92.5817 77° East 457 526 23,000 -645 Level Houston Center
Fri 12:06:35 AM 30.2742 -92.4133 78° East 449 517 21,700 -1,438 Descending Houston Center
Fri 12:07:36 AM 30.2972 -92.2936 77° East 429 494 20,100 -1,686 Descending Houston Center
Fri 12:08:36 AM 30.3217 -92.1697 77° East 406 467 18,300 -1,785 Descending Houston Center
Fri 12:09:37 AM 30.3436 -92.0508 78° East 389 448 16,500 -1,636 Descending Houston Center
Fri 12:10:37 AM 30.3669 -91.9333 77° East 379 436 15,000 -1,500 Descending Houston Center
Fri 12:11:37 AM 30.3886 -91.8125 78° East 383 441 13,500 -1,587 Descending Houston Center
Fri 12:12:38 AM 30.4139 -91.6772 78° East 389 448 11,800 -1,339 Descending Houston Center
Fri 12:13:38 AM 30.4381 -91.5567 77° East 387 445 10,800 -942 Descending Houston Center
Fri 12:14:39 AM 30.4567 -91.4550 78° East 334 384 9,900 -1,388 Descending Houston Center
Fri 12:15:39 AM 30.4725 -91.3628 79° East 299 344 8,000 -1,736 Descending Houston Center
Fri 12:16:40 AM 30.5100 -91.2878 60° Northeast 287 330 6,400 -1,835 Descending Houston Center
Fri 12:17:40 AM 30.5556 -91.2264 49° Northeast 261 300 4,300 -1,700 Descending Houston Center
Fri 12:18:40 AM 30.6042 -91.1672 46° Northeast 246 283 3,000 -645 Descending Houston Center
Fri 12:19:41 AM 30.6431 -91.1225 45° Northeast 231 266 3,000 -50 Level Houston Center
Fri 12:20:41 AM 30.6867 -91.0722 45° Northeast 225 259 2,900 -149 Descending Houston Center
Fri 12:21:42 AM 30.7306 -91.0217 45° Northeast 225 259 2,700 -197 Descending Houston Center

Login

Don't have an account? Register now (free) for customized features, flight alerts, and more!